createdAt,value
2023-04-20T00:02:03.224Z,99758.16
2023-04-20T00:04:31.714Z,99751.47
2023-04-20T00:06:59.987Z,99747.81
2023-04-20T00:09:28.592Z,99746.95
2023-04-20T00:11:56.635Z,99748.31
2023-04-20T00:14:24.876Z,99745.94
2023-04-20T00:16:52.912Z,99746.39
2023-04-20T00:19:21.323Z,99746.42
2023-04-20T00:21:50.061Z,99741.23
2023-04-20T00:24:18.117Z,99738.40
2023-04-20T00:26:46.179Z,99736.96
2023-04-20T00:29:14.393Z,99736.73
2023-04-20T00:31:42.845Z,99735.73
2023-04-20T00:34:11.237Z,99730.53
2023-04-20T00:36:39.400Z,99725.45
2023-04-20T00:39:07.710Z,99723.90
2023-04-20T00:41:36.121Z,99722.55
2023-04-20T00:44:04.410Z,99721.64
2023-04-20T00:46:34.070Z,99716.39
2023-04-20T00:49:02.166Z,99714.98
2023-04-20T00:51:31.953Z,99709.27
2023-04-20T00:54:00.203Z,99703.61
2023-04-20T00:56:28.627Z,99698.77
2023-04-20T00:58:56.870Z,99696.64
2023-04-20T01:01:25.068Z,99691.77
2023-04-20T01:03:53.954Z,99686.34
2023-04-20T01:06:22.389Z,99687.52
2023-04-20T01:08:51.301Z,99682.52
2023-04-20T01:11:19.773Z,99680.92
2023-04-20T01:13:47.848Z,99680.55
2023-04-20T01:16:16.338Z,99683.09
2023-04-20T01:18:47.351Z,99680.81
2023-04-20T01:21:17.490Z,99681.20
2023-04-20T01:23:46.197Z,99683.13
2023-04-20T01:26:15.913Z,99682.14
2023-04-20T01:28:44.668Z,99682.11
2023-04-20T01:31:12.846Z,99677.28
2023-04-20T01:33:41.830Z,99672.97
2023-04-20T01:36:10.305Z,99668.94
2023-04-20T01:38:38.602Z,99664.27
2023-04-20T01:41:07.898Z,99665.91
2023-04-20T01:43:36.318Z,99657.31
2023-04-20T01:46:05.535Z,99656.09
2023-04-20T01:48:33.859Z,99653.92
2023-04-20T01:51:02.086Z,99659.77
2023-04-20T01:53:30.506Z,99659.08
2023-04-20T01:55:59.425Z,99660.81
2023-04-20T01:58:27.718Z,99651.59
2023-04-20T02:00:56.173Z,99648.48
2023-04-20T02:03:24.548Z,99646.08
2023-04-20T02:05:53.415Z,99644.19
2023-04-20T02:08:22.009Z,99644.05
2023-04-20T02:10:50.173Z,99642.95
2023-04-20T02:13:18.435Z,99643.83
2023-04-20T02:15:46.637Z,99647.52
2023-04-20T02:18:16.245Z,99641.48
2023-04-20T02:20:44.786Z,99643.23
2023-04-20T02:23:13.155Z,99644.41
2023-04-20T02:25:41.356Z,99641.71
2023-04-20T02:28:09.773Z,99643.39
2023-04-20T02:30:40.163Z,99636.21
2023-04-20T02:33:08.453Z,99637.50
2023-04-20T02:35:37.543Z,99641.80
2023-04-20T02:38:05.714Z,99638.91
2023-04-20T02:40:33.983Z,99636.14
2023-04-20T02:43:02.580Z,99631.67
2023-04-20T02:45:32.875Z,99627.98
2023-04-20T02:48:01.119Z,99624.92
2023-04-20T02:50:31.828Z,99629.02
2023-04-20T02:53:21.672Z,99633.50
2023-04-20T02:55:59.453Z,99627.84
2023-04-20T02:58:37.590Z,99625.42
2023-04-20T03:01:35.903Z,99618.77
2023-04-20T03:04:10.091Z,99609.78
2023-04-20T03:06:42.970Z,99606.33
2023-04-20T03:09:13.260Z,99602.96
2023-04-20T03:12:06.263Z,99604.73
2023-04-20T03:15:00.829Z,99601.15
2023-04-20T03:17:47.742Z,99598.38
2023-04-20T03:20:16.692Z,99595.02
2023-04-20T03:22:45.000Z,99594.21
2023-04-20T03:25:13.404Z,99596.06
2023-04-20T03:27:51.094Z,99589.34
2023-04-20T03:30:20.598Z,99588.27
2023-04-20T03:32:52.702Z,99582.65
2023-04-20T03:35:21.100Z,99581.85
2023-04-20T03:37:49.527Z,99583.39
2023-04-20T03:40:17.804Z,99583.71
2023-04-20T03:42:46.231Z,99588.56
2023-04-20T03:45:15.783Z,99592.99
2023-04-20T03:47:43.968Z,99588.52
2023-04-20T03:50:12.237Z,99593.00
2023-04-20T03:52:41.150Z,99591.54
2023-04-20T03:55:10.168Z,99595.33
2023-04-20T03:57:40.373Z,99590.70
2023-04-20T04:00:10.966Z,99588.97
2023-04-20T04:02:47.978Z,99587.89
2023-04-20T04:05:21.529Z,99582.92
2023-04-20T04:08:02.816Z,99586.14
2023-04-20T04:10:31.520Z,99580.16
2023-04-20T04:12:59.744Z,99577.97
2023-04-20T04:15:28.282Z,99577.73
2023-04-20T04:18:02.843Z,99575.02
2023-04-20T04:20:32.315Z,99574.24
2023-04-20T04:23:00.740Z,99574.09
2023-04-20T04:25:42.555Z,99571.95
2023-04-20T04:28:12.801Z,99575.33
2023-04-20T04:30:47.507Z,99570.90
2023-04-20T04:33:19.007Z,99571.62
2023-04-20T04:35:47.470Z,99571.34
2023-04-20T04:38:16.351Z,99563.83
2023-04-20T04:40:46.737Z,99552.86
2023-04-20T04:43:21.300Z,99555.64
2023-04-20T04:45:58.618Z,99554.80
2023-04-20T04:48:28.030Z,99548.89
2023-04-20T04:50:56.185Z,99543.63
2023-04-20T04:53:24.421Z,99540.11
2023-04-20T04:55:52.516Z,99536.80
2023-04-20T04:58:20.994Z,99542.46
2023-04-20T05:00:49.477Z,99536.27
2023-04-20T05:03:17.903Z,99533.30
2023-04-20T05:05:46.277Z,99532.97
2023-04-20T05:08:14.507Z,99531.13
2023-04-20T05:10:42.609Z,99532.82
2023-04-20T05:13:11.061Z,99534.32
2023-04-20T05:15:39.242Z,99529.21
2023-04-20T05:18:07.394Z,99527.61
2023-04-20T05:20:35.576Z,99526.89
2023-04-20T05:23:04.497Z,99525.11
2023-04-20T05:25:32.973Z,99527.88
2023-04-20T05:28:01.131Z,99531.36
2023-04-20T05:30:29.502Z,99528.94
2023-04-20T05:32:57.808Z,99542.05
2023-04-20T05:35:26.149Z,99543.22
2023-04-20T05:37:54.522Z,99544.80
2023-04-20T05:40:22.724Z,99544.96
2023-04-20T05:42:50.993Z,99550.52
2023-04-20T05:45:19.365Z,99552.59
2023-04-20T05:47:56.762Z,99548.10
2023-04-20T05:50:25.491Z,99554.40
2023-04-20T05:52:54.220Z,99554.03
2023-04-20T05:55:23.032Z,99551.14
2023-04-20T05:57:52.367Z,99551.11
2023-04-20T06:00:21.756Z,99551.39
2023-04-20T06:02:51.408Z,99548.45
2023-04-20T06:05:21.073Z,99547.09
2023-04-20T06:07:49.420Z,99544.16
2023-04-20T06:10:17.711Z,99536.45
2023-04-20T06:12:45.866Z,99538.52
2023-04-20T06:15:14.033Z,99539.15
2023-04-20T06:17:42.935Z,99535.38
2023-04-20T06:20:11.785Z,99534.45
2023-04-20T06:22:44.594Z,99533.23
2023-04-20T06:25:16.748Z,99534.23
2023-04-20T06:27:45.454Z,99533.48
2023-04-20T06:30:14.294Z,99531.78
2023-04-20T06:32:42.457Z,99535.87
2023-04-20T06:35:11.022Z,99529.39
2023-04-20T06:37:40.405Z,99525.98
2023-04-20T06:40:08.997Z,99531.14
2023-04-20T06:42:37.907Z,99529.80
2023-04-20T06:45:07.273Z,99528.48
2023-04-20T06:47:35.605Z,99524.47
2023-04-20T06:50:07.426Z,99526.63
2023-04-20T06:52:37.979Z,99522.46
2023-04-20T06:55:06.269Z,99523.31
2023-04-20T06:57:34.706Z,99519.89
2023-04-20T07:00:03.169Z,99520.83
2023-04-20T07:02:41.568Z,99521.20
2023-04-20T07:05:10.518Z,99520.77
2023-04-20T07:07:39.599Z,99525.33
2023-04-20T07:10:09.394Z,99523.52
2023-04-20T07:12:38.825Z,99523.30
2023-04-20T07:15:08.600Z,99525.30
2023-04-20T07:17:37.630Z,99527.20
2023-04-20T07:20:08.578Z,99522.79
2023-04-20T07:22:38.149Z,99520.07
2023-04-20T07:25:08.210Z,99522.45
2023-04-20T07:27:40.531Z,99518.67
2023-04-20T07:30:10.766Z,99525.96
2023-04-20T07:32:40.931Z,99521.70
2023-04-20T07:35:10.026Z,99525.13
2023-04-20T07:37:38.989Z,99524.96
2023-04-20T07:40:07.919Z,99524.13
2023-04-20T07:42:37.492Z,99524.43
2023-04-20T07:45:09.731Z,99521.28
2023-04-20T07:47:38.103Z,99523.88
2023-04-20T07:50:07.420Z,99519.74
2023-04-20T07:52:35.934Z,99521.27
2023-04-20T07:55:06.213Z,99520.05
2023-04-20T07:57:34.973Z,99516.35
2023-04-20T08:00:07.391Z,99515.85
2023-04-20T08:02:41.900Z,99518.20
2023-04-20T08:05:10.760Z,99522.46
2023-04-20T08:07:40.887Z,99520.89
2023-04-20T08:10:10.324Z,99518.48
2023-04-20T08:12:39.992Z,99512.37
2023-04-20T08:15:09.379Z,99519.84
2023-04-20T08:17:38.315Z,99519.54
2023-04-20T08:20:08.026Z,99522.12
2023-04-20T08:22:38.363Z,99517.55
2023-04-20T08:25:06.737Z,99518.52
2023-04-20T08:27:35.196Z,99518.19
2023-04-20T08:30:04.531Z,99514.80
2023-04-20T08:32:33.433Z,99515.83
2023-04-20T08:35:01.779Z,99520.29
2023-04-20T08:37:32.503Z,99521.86
2023-04-20T08:40:01.700Z,99523.56
2023-04-20T08:42:30.080Z,99522.63
2023-04-20T08:44:58.573Z,99521.17
2023-04-20T08:47:28.005Z,99520.14
2023-04-20T08:49:56.351Z,99521.79
2023-04-20T08:52:24.626Z,99520.19
2023-04-20T08:54:57.315Z,99524.10
2023-04-20T08:57:26.642Z,99523.56
2023-04-20T08:59:55.111Z,99525.13
2023-04-20T09:02:23.284Z,99525.86
2023-04-20T09:05:01.491Z,99525.14
2023-04-20T09:07:30.036Z,99527.07
2023-04-20T09:09:59.260Z,99527.87
2023-04-20T09:12:28.172Z,99528.35
2023-04-20T09:14:56.818Z,99530.38
2023-04-20T09:17:36.319Z,99530.49
2023-04-20T09:20:05.398Z,99533.17
2023-04-20T09:22:37.792Z,99529.54
2023-04-20T09:25:16.132Z,99531.89
2023-04-20T09:27:58.227Z,99531.77
2023-04-20T09:30:43.401Z,99530.53
2023-04-20T09:33:12.689Z,99533.41
2023-04-20T09:35:44.564Z,99527.55
2023-04-20T09:38:15.968Z,99525.23
2023-04-20T09:40:44.292Z,99527.81
2023-04-20T09:43:19.527Z,99524.14
2023-04-20T09:45:47.788Z,99519.66
2023-04-20T09:48:19.282Z,99519.75
2023-04-20T09:50:50.566Z,99517.74
2023-04-20T09:53:20.258Z,99516.73
2023-04-20T09:55:49.903Z,99515.93
2023-04-20T09:58:19.953Z,99517.92
2023-04-20T10:00:48.312Z,99514.90
2023-04-20T10:03:18.448Z,99513.52
2023-04-20T10:05:47.227Z,99517.02
2023-04-20T10:08:15.505Z,99518.25
2023-04-20T10:10:48.481Z,99513.46
2023-04-20T10:13:22.013Z,99515.61
2023-04-20T10:15:50.266Z,99517.00
2023-04-20T10:18:26.603Z,99517.13
2023-04-20T10:21:06.403Z,99518.39
2023-04-20T10:23:34.942Z,99518.54
2023-04-20T10:26:04.092Z,99519.43
2023-04-20T10:28:40.561Z,99518.31
2023-04-20T10:31:08.990Z,99523.71
2023-04-20T10:33:37.450Z,99523.67
2023-04-20T10:36:05.863Z,99525.92
2023-04-20T10:38:35.256Z,99525.47
2023-04-20T10:41:09.870Z,99530.92
2023-04-20T10:43:42.366Z,99530.64
2023-04-20T10:46:28.634Z,99531.98
2023-04-20T10:48:58.788Z,99531.73
2023-04-20T10:51:27.003Z,99535.16
2023-04-20T10:54:18.322Z,99536.74
2023-04-20T10:56:48.428Z,99540.95
2023-04-20T10:59:23.668Z,99540.60
2023-04-20T11:01:52.276Z,99542.41
2023-04-20T11:04:33.169Z,99545.11
2023-04-20T11:07:07.122Z,99545.75
2023-04-20T11:09:35.791Z,99550.11
2023-04-20T11:12:07.850Z,99549.98
2023-04-20T11:14:38.561Z,99555.10
2023-04-20T11:17:06.905Z,99558.02
2023-04-20T11:19:36.299Z,99558.19
2023-04-20T11:22:05.470Z,99558.58
2023-04-20T11:24:36.291Z,99556.08
2023-04-20T11:27:04.990Z,99558.80
2023-04-20T11:29:34.943Z,99559.79
2023-04-20T11:32:07.339Z,99564.36
2023-04-20T11:34:37.083Z,99562.59
2023-04-20T11:37:06.670Z,99567.63
2023-04-20T11:39:36.683Z,99560.45
2023-04-20T11:42:05.223Z,99558.73
2023-04-20T11:44:34.503Z,99559.70
2023-04-20T11:47:03.923Z,99558.71
2023-04-20T11:49:32.836Z,99560.52
2023-04-20T11:52:01.260Z,99556.62
2023-04-20T11:54:32.411Z,99554.23
2023-04-20T11:57:00.857Z,99554.84
2023-04-20T11:59:29.155Z,99554.56
2023-04-20T12:01:57.340Z,99555.23
2023-04-20T12:04:25.988Z,99554.43
2023-04-20T12:06:54.399Z,99550.56
2023-04-20T12:09:22.758Z,99553.53
2023-04-20T12:11:50.865Z,99558.10
2023-04-20T12:14:19.011Z,99549.42
2023-04-20T12:16:47.073Z,99550.13
2023-04-20T12:19:16.248Z,99555.73
2023-04-20T12:21:44.610Z,99553.83
2023-04-20T12:24:12.941Z,99551.94
2023-04-20T12:26:41.265Z,99557.02
2023-04-20T12:29:09.338Z,99555.98
2023-04-20T12:31:37.603Z,99552.51
2023-04-20T12:34:06.679Z,99556.44
2023-04-20T12:36:35.268Z,99561.41
2023-04-20T12:39:04.198Z,99561.83
2023-04-20T12:41:33.382Z,99562.62
2023-04-20T12:44:04.328Z,99567.92
2023-04-20T12:46:34.508Z,99574.77
2023-04-20T12:49:03.235Z,99576.31
2023-04-20T12:51:32.394Z,99575.93
2023-04-20T12:54:00.951Z,99575.31
2023-04-20T12:56:29.198Z,99576.02
2023-04-20T12:58:57.815Z,99576.15
2023-04-20T13:01:26.715Z,99575.63
2023-04-20T13:03:56.279Z,99578.73
2023-04-20T13:06:24.586Z,99575.81
2023-04-20T13:08:52.873Z,99576.09
2023-04-20T13:11:20.958Z,99573.56
2023-04-20T13:13:49.087Z,99572.91
2023-04-20T13:16:17.255Z,99572.29
2023-04-20T13:18:45.469Z,99574.69
2023-04-20T13:21:13.733Z,99574.95
2023-04-20T13:23:42.005Z,99576.88
2023-04-20T13:26:10.282Z,99576.20
2023-04-20T13:28:38.967Z,99578.89
2023-04-20T13:31:07.349Z,99575.90
2023-04-20T13:33:35.984Z,99575.52
2023-04-20T13:36:04.564Z,99574.05
2023-04-20T13:38:33.261Z,99574.13
2023-04-20T13:41:01.476Z,99573.59
2023-04-20T13:43:31.051Z,99572.77
2023-04-20T13:45:59.285Z,99575.95
2023-04-20T13:48:27.599Z,99570.29
2023-04-20T13:50:56.628Z,99570.34
2023-04-20T13:53:24.777Z,99568.73
2023-04-20T13:55:53.100Z,99567.66
2023-04-20T13:58:21.483Z,99567.23
2023-04-20T14:00:49.640Z,99568.16
2023-04-20T14:03:20.317Z,99565.73
2023-04-20T14:05:51.067Z,99561.32
2023-04-20T14:08:20.927Z,99562.83
2023-04-20T14:10:49.097Z,99562.41
2023-04-20T14:13:17.575Z,99562.45
2023-04-20T14:15:45.786Z,99563.83
2023-04-20T14:18:14.324Z,99564.19
2023-04-20T14:20:42.707Z,99558.88
2023-04-20T14:23:10.799Z,99557.85
2023-04-20T14:25:38.930Z,99558.77
2023-04-20T14:28:07.097Z,99558.41
2023-04-20T14:30:35.943Z,99561.55
2023-04-20T14:33:05.418Z,99558.41
2023-04-20T14:35:34.815Z,99562.41
2023-04-20T14:38:03.093Z,99565.84
2023-04-20T14:40:32.394Z,99563.18
2023-04-20T14:43:00.883Z,99565.15
2023-04-20T14:45:29.254Z,99563.25
2023-04-20T14:47:57.393Z,99558.87
2023-04-20T14:50:28.985Z,99564.58
2023-04-20T14:52:57.254Z,99567.86
2023-04-20T14:55:26.301Z,99566.58
2023-04-20T14:57:55.956Z,99571.81
2023-04-20T15:00:25.345Z,99574.21
2023-04-20T15:02:56.375Z,99575.31
2023-04-20T15:05:26.037Z,99574.21
2023-04-20T15:07:54.531Z,99576.70
2023-04-20T15:10:22.763Z,99579.53
2023-04-20T15:12:51.249Z,99579.39
2023-04-20T15:15:19.400Z,99577.85
2023-04-20T15:17:47.738Z,99576.38
2023-04-20T15:20:15.971Z,99581.72
2023-04-20T15:22:44.471Z,99579.67
2023-04-20T15:25:12.736Z,99576.73
2023-04-20T15:27:41.213Z,99582.77
2023-04-20T15:30:09.991Z,99578.08
2023-04-20T15:32:38.394Z,99580.81
2023-04-20T15:35:06.804Z,99577.38
2023-04-20T15:37:35.027Z,99584.55
2023-04-20T15:40:03.314Z,99581.95
2023-04-20T15:42:32.002Z,99580.30
2023-04-20T15:45:00.177Z,99586.04
2023-04-20T15:47:28.346Z,99593.65
2023-04-20T15:50:01.622Z,99591.53
2023-04-20T15:52:31.236Z,99589.00
2023-04-20T15:54:59.512Z,99591.63
2023-04-20T15:57:29.324Z,99595.22
2023-04-20T15:59:58.014Z,99588.73
2023-04-20T16:02:26.334Z,99591.23
2023-04-20T16:04:54.924Z,99592.66
2023-04-20T16:07:23.456Z,99595.74
2023-04-20T16:09:51.835Z,99601.52
2023-04-20T16:12:20.020Z,99596.88
2023-04-20T16:14:48.797Z,99594.96
2023-04-20T16:17:17.127Z,99600.59
2023-04-20T16:19:45.357Z,99597.67
2023-04-20T16:22:14.458Z,99599.41
2023-04-20T16:24:42.615Z,99603.41
2023-04-20T16:27:10.909Z,99605.91
2023-04-20T16:29:39.175Z,99600.80
2023-04-20T16:32:07.352Z,99605.24
2023-04-20T16:34:35.827Z,99606.47
2023-04-20T16:37:04.083Z,99608.83
2023-04-20T16:39:32.793Z,99607.25
2023-04-20T16:42:01.573Z,99611.39
2023-04-20T16:44:29.825Z,99607.20
2023-04-20T16:46:58.258Z,99614.78
2023-04-20T16:49:27.294Z,99615.77
2023-04-20T16:51:55.601Z,99621.20
2023-04-20T16:54:23.779Z,99619.04
2023-04-20T16:56:51.948Z,99619.65
2023-04-20T16:59:21.048Z,99619.08
2023-04-20T17:01:49.457Z,99622.66
2023-04-20T17:04:18.540Z,99620.36
2023-04-20T17:06:47.224Z,99624.77
2023-04-20T17:09:15.398Z,99620.98
2023-04-20T17:11:43.653Z,99619.63
2023-04-20T17:14:11.864Z,99620.39
2023-04-20T17:16:40.031Z,99622.18
2023-04-20T17:19:08.274Z,99626.44
2023-04-20T17:21:36.856Z,99622.89
2023-04-20T17:24:05.320Z,99621.85
2023-04-20T17:26:34.329Z,99611.02
2023-04-20T17:29:02.405Z,99616.63
2023-04-20T17:31:33.752Z,99621.73
2023-04-20T17:34:01.974Z,99621.41
2023-04-20T17:36:30.556Z,99618.42
2023-04-20T17:38:58.837Z,99621.14
2023-04-20T17:41:27.267Z,99620.06
2023-04-20T17:43:55.444Z,99626.73
2023-04-20T17:46:23.905Z,99622.72
2023-04-20T17:48:52.320Z,99619.55
2023-04-20T17:51:20.888Z,99616.70
2023-04-20T17:53:48.948Z,99616.33
2023-04-20T17:56:17.251Z,99614.95
2023-04-20T17:58:46.429Z,99613.17
2023-04-20T18:01:14.773Z,99609.89
2023-04-20T18:03:42.983Z,99608.64
2023-04-20T18:06:11.358Z,99606.05
2023-04-20T18:08:39.787Z,99615.36
2023-04-20T18:11:07.896Z,99608.02
2023-04-20T18:13:36.118Z,99613.32
2023-04-20T18:16:07.355Z,99613.29
2023-04-20T18:18:36.042Z,99612.73
2023-04-20T18:21:04.528Z,99610.80
2023-04-20T18:23:32.989Z,99613.64
2023-04-20T18:26:01.278Z,99600.22
2023-04-20T18:28:29.599Z,99601.30
2023-04-20T18:30:59.028Z,99606.60
2023-04-20T18:33:27.519Z,99612.81
2023-04-20T18:35:55.689Z,99603.58
2023-04-20T18:38:23.754Z,99600.26
2023-04-20T18:40:52.137Z,99603.47
2023-04-20T18:43:20.414Z,99605.05
2023-04-20T18:45:48.710Z,99603.88
2023-04-20T18:48:17.507Z,99600.94
2023-04-20T18:50:47.430Z,99601.56
2023-04-20T18:53:16.914Z,99596.84
2023-04-20T18:55:45.820Z,99602.23
2023-04-20T18:58:13.961Z,99607.39
2023-04-20T19:00:42.067Z,99607.30
2023-04-20T19:03:10.880Z,99609.02
2023-04-20T19:05:39.262Z,99606.22
2023-04-20T19:08:07.508Z,99604.73
2023-04-20T19:10:35.959Z,99608.33
2023-04-20T19:13:04.239Z,99609.65
2023-04-20T19:15:32.750Z,99607.91
2023-04-20T19:18:00.878Z,99604.48
2023-04-20T19:20:29.582Z,99602.34
2023-04-20T19:22:57.859Z,99602.63
2023-04-20T19:25:26.110Z,99603.45
2023-04-20T19:27:54.182Z,99605.16
2023-04-20T19:30:22.689Z,99605.53
2023-04-20T19:32:50.790Z,99607.83
2023-04-20T19:35:18.969Z,99609.56
2023-04-20T19:37:47.200Z,99607.05
2023-04-20T19:40:16.399Z,99609.52
2023-04-20T19:42:44.990Z,99610.48
2023-04-20T19:45:13.152Z,99607.38
2023-04-20T19:47:41.759Z,99606.59
2023-04-20T19:50:11.219Z,99606.98
2023-04-20T19:52:39.746Z,99604.02
2023-04-20T19:55:08.471Z,99603.53
2023-04-20T19:57:36.723Z,99602.62
2023-04-20T20:00:05.895Z,99601.58
2023-04-20T20:02:41.731Z,99600.94
2023-04-20T20:05:10.135Z,99602.75
2023-04-20T20:07:38.618Z,99601.52
2023-04-20T20:10:07.277Z,99600.88
2023-04-20T20:12:35.574Z,99598.78
2023-04-20T20:15:04.969Z,99596.23
2023-04-20T20:17:33.274Z,99595.48
2023-04-20T20:20:02.253Z,99601.13
2023-04-20T20:22:30.719Z,99599.02
2023-04-20T20:24:58.981Z,99602.41
2023-04-20T20:27:30.248Z,99597.41
2023-04-20T20:29:58.314Z,99597.31
2023-04-20T20:32:26.417Z,99600.52
2023-04-20T20:34:54.846Z,99599.94
2023-04-20T20:37:24.472Z,99598.15
2023-04-20T20:39:53.280Z,99591.48
2023-04-20T20:42:21.620Z,99590.00
2023-04-20T20:44:49.869Z,99585.70
2023-04-20T20:47:18.152Z,99583.01
2023-04-20T20:49:46.558Z,99580.19
2023-04-20T20:52:14.621Z,99574.63
2023-04-20T20:54:42.952Z,99574.33
2023-04-20T20:57:11.110Z,99569.49
2023-04-20T20:59:39.864Z,99574.63
2023-04-20T21:02:08.161Z,99569.91
2023-04-20T21:04:37.332Z,99564.73
2023-04-20T21:07:06.028Z,99565.34
2023-04-20T21:09:34.518Z,99559.93
2023-04-20T21:12:04.827Z,99560.17
2023-04-20T21:14:34.132Z,99560.51
2023-04-20T21:17:02.564Z,99557.20
2023-04-20T21:19:30.994Z,99554.68
2023-04-20T21:21:59.355Z,99556.90
2023-04-20T21:24:27.852Z,99557.65
2023-04-20T21:26:56.757Z,99559.01
2023-04-20T21:29:24.836Z,99556.54
2023-04-20T21:31:53.087Z,99555.70
2023-04-20T21:34:21.678Z,99550.49
2023-04-20T21:36:49.840Z,99547.52
2023-04-20T21:39:18.496Z,99547.58
2023-04-20T21:41:47.002Z,99549.78
2023-04-20T21:44:15.190Z,99550.35
2023-04-20T21:46:43.636Z,99550.02
2023-04-20T21:49:11.873Z,99548.79
2023-04-20T21:51:40.223Z,99547.51
2023-04-20T21:54:08.391Z,99544.36
2023-04-20T21:56:36.870Z,99545.02
2023-04-20T21:59:05.375Z,99542.63
2023-04-20T22:01:34.077Z,99540.98
2023-04-20T22:04:02.627Z,99544.52
2023-04-20T22:06:32.715Z,99541.05
2023-04-20T22:09:00.947Z,99538.61
2023-04-20T22:11:29.766Z,99535.84
2023-04-20T22:13:57.879Z,99536.61
2023-04-20T22:16:26.112Z,99535.66
2023-04-20T22:18:54.526Z,99537.33
2023-04-20T22:21:22.699Z,99533.88
2023-04-20T22:23:51.082Z,99535.13
2023-04-20T22:26:19.281Z,99531.88
2023-04-20T22:28:47.525Z,99523.45
2023-04-20T22:31:16.398Z,99528.16
2023-04-20T22:33:44.672Z,99531.15
2023-04-20T22:36:13.111Z,99524.42
2023-04-20T22:38:41.393Z,99527.48
2023-04-20T22:41:09.834Z,99525.71
2023-04-20T22:43:38.310Z,99523.23
2023-04-20T22:46:06.488Z,99520.12
2023-04-20T22:48:35.104Z,99519.52
2023-04-20T22:51:03.656Z,99516.51
2023-04-20T22:53:31.969Z,99516.96
2023-04-20T22:56:07.461Z,99516.52
2023-04-20T22:58:36.007Z,99520.01
2023-04-20T23:01:04.302Z,99515.15
2023-04-20T23:03:32.883Z,99513.44
2023-04-20T23:06:01.180Z,99516.49
2023-04-20T23:08:29.647Z,99512.52
2023-04-20T23:10:57.771Z,99510.42
2023-04-20T23:13:26.506Z,99507.05
2023-04-20T23:15:54.730Z,99506.94
